Time;durP1;ratioP1;P1;durP2;ratioP2;P2;SDS_P1;SDS_P2;PMS_P1;PMS_P2;Temp;Humidity;BMP_temperature;BMP_pressure;BME280_temperature;BME280_humidity;BME280_pressure;Samples;Min_cycle;Max_cycle;Signal;HPM_P1;HPM_P2
2021/11/13 00:00:14;;;;;;;0.70;0.50;;;4.70;99.90;;;;;;5046917;28;20425;-71
2021/11/13 00:02:40;;;;;;;1.27;0.80;;;4.80;99.90;;;;;;5047813;28;20455;-70
2021/11/13 00:05:06;;;;;;;0.70;0.50;;;4.70;99.90;;;;;;5052157;28;20429;-71
2021/11/13 00:07:32;;;;;;;0.90;0.67;;;4.80;99.90;;;;;;5046166;28;20179;-71
2021/11/13 00:09:58;;;;;;;1.30;0.70;;;4.80;99.90;;;;;;5044973;28;20467;-71
2021/11/13 00:12:24;;;;;;;0.70;0.50;;;4.90;99.90;;;;;;5045895;28;20179;-71
2021/11/13 00:14:50;;;;;;;4.10;1.47;;;5.00;99.90;;;;;;5044654;28;20465;-71
2021/11/13 00:17:16;;;;;;;0.70;0.50;;;5.00;99.90;;;;;;5045743;28;20213;-71
2021/11/13 00:19:42;;;;;;;0.80;0.60;;;5.00;99.90;;;;;;5044844;28;20972;-71
2021/11/13 00:22:08;;;;;;;1.00;0.87;;;4.90;99.90;;;;;;5048440;28;20490;-71
2021/11/13 00:24:36;;;;;;;1.10;1.00;;;4.90;99.90;;;;;;5044975;28;20434;-71
2021/11/13 00:27:03;;;;;;;2.93;0.90;;;4.90;99.90;;;;;;5044485;28;20972;-71
2021/11/13 00:29:29;;;;;;;0.80;0.60;;;4.90;99.90;;;;;;5044477;28;20453;-71
2021/11/13 00:31:54;;;;;;;0.70;0.50;;;4.90;99.90;;;;;;5044597;28;22306;-71
2021/11/13 00:34:20;;;;;;;0.70;0.50;;;5.00;99.90;;;;;;5049125;28;20249;-70
2021/11/13 00:36:46;;;;;;;0.70;0.50;;;5.00;99.90;;;;;;5045080;28;20183;-71
2021/11/13 00:39:11;;;;;;;1.93;1.17;;;5.10;99.90;;;;;;5043731;28;20569;-70
2021/11/13 00:41:37;;;;;;;0.70;0.50;;;5.10;99.90;;;;;;5046106;28;20425;-72
2021/11/13 00:44:04;;;;;;;0.80;0.60;;;5.10;99.90;;;;;;5046715;28;20656;-72
2021/11/13 00:46:30;;;;;;;0.80;0.80;;;5.20;99.90;;;;;;5046862;28;20182;-72
2021/11/13 00:48:56;;;;;;;0.70;0.50;;;5.10;99.90;;;;;;5043850;28;20941;-72
2021/11/13 00:51:21;;;;;;;3.90;1.53;;;4.90;99.90;;;;;;5045597;28;20595;-71
2021/11/13 00:53:47;;;;;;;1.63;1.50;;;4.90;99.90;;;;;;5047287;28;20477;-71
2021/11/13 00:56:13;;;;;;;1.03;0.93;;;4.80;99.90;;;;;;5044122;28;20282;-71
2021/11/13 00:58:39;;;;;;;4.60;1.33;;;4.70;99.90;;;;;;5045346;28;20318;-71
2021/11/13 01:01:05;;;;;;;0.70;0.50;;;4.70;99.90;;;;;;5045282;28;20756;-71
2021/11/13 01:03:32;;;;;;;1.47;1.37;;;4.70;99.90;;;;;;5043849;28;20515;-72
2021/11/13 01:05:57;;;;;;;2.13;1.37;;;4.60;99.90;;;;;;5043957;28;20436;-72
2021/11/13 01:08:23;;;;;;;0.90;0.80;;;4.60;99.90;;;;;;5044424;28;20452;-71
2021/11/13 01:10:50;;;;;;;1.73;1.63;;;4.60;99.90;;;;;;5044331;28;20175;-70
2021/11/13 01:13:16;;;;;;;0.70;0.50;;;4.60;99.90;;;;;;5047305;28;20187;-71
2021/11/13 01:15:42;;;;;;;0.97;0.97;;;4.70;99.90;;;;;;5044735;28;20515;-71
2021/11/13 01:18:08;;;;;;;1.13;1.03;;;4.80;99.90;;;;;;5045083;28;20203;-71
2021/11/13 01:20:33;;;;;;;2.70;1.87;;;5.00;99.90;;;;;;5043891;28;20436;-72
2021/11/13 01:23:00;;;;;;;0.70;0.50;;;5.00;99.90;;;;;;5044580;28;20429;-71
2021/11/13 01:25:27;;;;;;;0.70;0.60;;;5.10;99.90;;;;;;5044721;28;20183;-71
2021/11/13 01:27:52;;;;;;;4.60;2.70;;;5.30;99.90;;;;;;5044119;28;20945;-71
2021/11/13 01:30:18;;;;;;;1.90;1.40;;;5.50;99.90;;;;;;5044004;28;20433;-71
2021/11/13 01:32:45;;;;;;;1.43;1.03;;;5.80;99.90;;;;;;5044602;28;20183;-71
2021/11/13 01:35:11;;;;;;;0.70;0.50;;;5.90;99.90;;;;;;5043527;28;20282;-71
2021/11/13 01:37:37;;;;;;;2.70;1.50;;;6.10;99.90;;;;;;5051341;28;20433;-71
2021/11/13 01:40:05;;;;;;;0.70;0.50;;;6.30;99.90;;;;;;5053250;28;20405;-71
2021/11/13 01:42:31;;;;;;;6.13;1.67;;;6.40;99.90;;;;;;5052437;28;20444;-72
2021/11/13 01:44:58;;;;;;;1.63;1.03;;;6.60;99.90;;;;;;5049413;28;20425;-71
2021/11/13 01:47:24;;;;;;;1.47;1.37;;;6.60;99.90;;;;;;5051650;28;20416;-71
2021/11/13 01:49:50;;;;;;;1.90;0.90;;;6.80;99.90;;;;;;5052822;28;20437;-71
2021/11/13 01:52:16;;;;;;;4.50;1.93;;;6.80;99.90;;;;;;5052857;28;20177;-71
2021/11/13 01:54:43;;;;;;;4.43;0.90;;;6.90;99.90;;;;;;5052743;28;20880;-71
2021/11/13 01:57:11;;;;;;;0.70;0.50;;;6.80;99.90;;;;;;5051794;28;20191;-71
2021/11/13 01:59:39;;;;;;;1.00;0.70;;;6.30;99.90;;;;;;5052114;28;20924;-71
2021/11/13 02:02:05;;;;;;;1.73;1.63;;;6.10;99.90;;;;;;5052248;28;20780;-71
2021/11/13 02:04:31;;;;;;;1.30;1.20;;;5.60;99.90;;;;;;5052550;28;20397;-71
2021/11/13 02:06:57;;;;;;;0.70;0.50;;;5.50;99.90;;;;;;5052347;28;20408;-71
2021/11/13 02:09:23;;;;;;;1.50;1.40;;;5.40;99.90;;;;;;5052517;28;20417;-71
2021/11/13 02:11:48;;;;;;;3.23;1.63;;;5.40;99.90;;;;;;5051688;28;20250;-71
2021/11/13 02:14:14;;;;;;;0.70;0.60;;;5.40;99.90;;;;;;5052555;28;20405;-71
2021/11/13 02:16:39;;;;;;;0.80;0.70;;;5.50;99.90;;;;;;5051949;28;20182;-71
2021/11/13 02:19:06;;;;;;;0.70;0.50;;;5.50;99.90;;;;;;5051297;28;20248;-70
2021/11/13 02:21:32;;;;;;;0.80;0.70;;;5.80;99.90;;;;;;5051829;28;20163;-71
2021/11/13 02:23:59;;;;;;;1.47;1.33;;;5.80;99.90;;;;;;5051769;28;20409;-71
2021/11/13 02:26:25;;;;;;;2.40;1.00;;;5.80;99.90;;;;;;5051504;28;20504;-71
2021/11/13 02:28:54;;;;;;;0.70;0.70;;;6.00;99.90;;;;;;5051673;28;20437;-71
2021/11/13 02:31:31;;;;;;;0.70;0.50;;;6.20;99.90;;;;;;5051697;28;20412;-71
2021/11/13 02:33:57;;;;;;;0.80;0.80;;;6.40;99.90;;;;;;5051033;28;20439;-71
2021/11/13 02:36:23;;;;;;;0.70;0.50;;;6.70;99.90;;;;;;5051889;28;20854;-72
2021/11/13 02:38:53;;;;;;;2.03;1.90;;;6.90;99.90;;;;;;5052103;28;20660;-71
2021/11/13 02:41:22;;;;;;;0.70;0.60;;;7.00;99.90;;;;;;5051835;28;20221;-72
2021/11/13 02:43:48;;;;;;;0.90;0.80;;;7.20;99.90;;;;;;5051868;28;20410;-71
2021/11/13 02:46:14;;;;;;;0.70;0.60;;;7.30;99.90;;;;;;5051993;28;20409;-72
2021/11/13 02:48:42;;;;;;;1.00;0.90;;;7.40;99.90;;;;;;5051657;28;20790;-72
2021/11/13 02:51:10;;;;;;;0.70;0.50;;;7.50;99.90;;;;;;5051384;28;20972;-69
2021/11/13 02:53:36;;;;;;;1.03;0.93;;;7.50;99.90;;;;;;5051610;28;20428;-70
2021/11/13 02:56:06;;;;;;;0.80;0.77;;;7.60;99.90;;;;;;5051013;28;20465;-70
2021/11/13 02:58:32;;;;;;;3.33;3.13;;;7.60;99.90;;;;;;5051408;28;20421;-71
2021/11/13 03:01:09;;;;;;;0.97;0.60;;;7.60;99.90;;;;;;5051594;28;20401;-70
2021/11/13 03:03:35;;;;;;;1.10;0.93;;;7.70;99.90;;;;;;5066941;28;20542;-70
2021/11/13 03:06:01;;;;;;;1.43;0.90;;;7.80;99.90;;;;;;5051215;28;20409;-71
2021/11/13 03:08:37;;;;;;;1.10;1.00;;;7.80;99.90;;;;;;5050501;28;20452;-71
2021/11/13 03:11:05;;;;;;;0.83;0.83;;;7.80;99.90;;;;;;5051606;28;20413;-71
2021/11/13 03:13:33;;;;;;;0.70;0.50;;;7.80;99.90;;;;;;5051524;28;20436;-71
2021/11/13 03:16:01;;;;;;;1.83;1.73;;;7.80;99.90;;;;;;5051603;28;20457;-72
2021/11/13 03:18:26;;;;;;;1.50;1.33;;;7.80;99.90;;;;;;5051799;28;20432;-72
2021/11/13 03:20:52;;;;;;;1.83;1.00;;;7.80;99.90;;;;;;5051626;28;20789;-71
2021/11/13 03:23:20;;;;;;;0.70;0.50;;;7.80;99.90;;;;;;5053090;28;20178;-72
2021/11/13 03:26:10;;;;;;;1.77;0.93;;;7.80;99.90;;;;;;5054369;28;20834;-72
2021/11/13 03:28:39;;;;;;;0.70;0.53;;;7.70;99.90;;;;;;5055492;28;20460;-72
2021/11/13 03:31:06;;;;;;;1.27;1.17;;;7.60;99.90;;;;;;5055537;28;20401;-72
2021/11/13 03:33:35;;;;;;;0.70;0.50;;;7.40;99.90;;;;;;5055096;28;20786;-71
2021/11/13 03:36:01;;;;;;;1.50;1.20;;;7.30;99.90;;;;;;5054434;28;21108;-71
2021/11/13 03:38:27;;;;;;;3.03;2.77;;;7.20;99.90;;;;;;5054724;28;20468;-71
2021/11/13 03:40:52;;;;;;;0.73;0.67;;;7.10;99.90;;;;;;5054689;28;20834;-71
2021/11/13 03:43:18;;;;;;;10.80;1.50;;;7.00;99.90;;;;;;5054277;28;20237;-72
2021/11/13 03:45:46;;;;;;;0.83;0.83;;;6.90;99.90;;;;;;5054451;28;20175;-72
2021/11/13 03:48:12;;;;;;;2.03;1.80;;;6.90;99.90;;;;;;5054605;28;20245;-71
2021/11/13 03:50:38;;;;;;;3.13;2.60;;;6.80;99.90;;;;;;5054601;28;20422;-72
2021/11/13 03:53:05;;;;;;;1.97;1.87;;;6.70;99.90;;;;;;5054492;28;20417;-71
2021/11/13 03:55:31;;;;;;;1.40;1.17;;;6.70;99.90;;;;;;5054146;28;20202;-72
2021/11/13 03:57:58;;;;;;;0.70;0.50;;;6.60;99.90;;;;;;5054632;28;20911;-72
2021/11/13 04:00:25;;;;;;;0.80;0.80;;;6.60;99.90;;;;;;5040561;28;20421;-71
2021/11/13 04:02:51;;;;;;;1.47;1.37;;;6.50;99.90;;;;;;5037611;28;20410;-71
2021/11/13 04:05:18;;;;;;;1.53;1.43;;;6.50;99.90;;;;;;5036035;28;20410;-71
2021/11/13 04:07:43;;;;;;;1.87;1.07;;;6.40;99.90;;;;;;5036045;28;20456;-71
2021/11/13 04:10:10;;;;;;;2.60;2.50;;;6.40;99.90;;;;;;5034420;28;20811;-72
2021/11/13 04:12:36;;;;;;;1.93;1.57;;;6.40;99.90;;;;;;5034133;28;20176;-72
2021/11/13 04:15:03;;;;;;;3.43;3.23;;;6.40;99.90;;;;;;5033893;28;20825;-72
2021/11/13 04:17:29;;;;;;;0.70;0.60;;;6.40;99.90;;;;;;5034603;28;20410;-72
2021/11/13 04:19:55;;;;;;;0.70;0.50;;;6.40;99.90;;;;;;5053815;28;20457;-72
2021/11/13 04:22:20;;;;;;;1.23;1.13;;;6.50;99.90;;;;;;5054848;28;20433;-71
2021/11/13 04:24:46;;;;;;;1.07;0.97;;;6.40;99.90;;;;;;5058522;28;20631;-70
2021/11/13 04:27:12;;;;;;;0.73;0.60;;;6.40;99.90;;;;;;5059610;28;20249;-72
2021/11/13 04:29:38;;;;;;;3.20;0.87;;;6.40;99.90;;;;;;5053641;28;20587;-72
2021/11/13 04:32:04;;;;;;;1.67;1.40;;;6.30;99.90;;;;;;5053758;28;20170;-70
2021/11/13 04:34:40;;;;;;;1.10;0.97;;;6.30;99.90;;;;;;5038233;28;20198;-70
2021/11/13 04:37:14;;;;;;;1.47;0.80;;;6.20;99.90;;;;;;5034626;28;20438;-72
2021/11/13 04:39:39;;;;;;;0.70;0.50;;;6.20;99.90;;;;;;5034636;28;20438;-70
2021/11/13 04:42:05;;;;;;;1.57;1.47;;;6.20;99.90;;;;;;5034710;28;20407;-70
2021/11/13 04:44:31;;;;;;;0.70;0.53;;;6.30;99.90;;;;;;5059803;28;20433;-70
2021/11/13 04:46:57;;;;;;;6.00;1.80;;;6.30;99.90;;;;;;5054772;28;20405;-71
2021/11/13 04:49:22;;;;;;;0.70;0.50;;;6.30;99.90;;;;;;5054517;28;20661;-71
2021/11/13 04:51:48;;;;;;;2.20;1.27;;;6.30;99.90;;;;;;5036702;28;20179;-71
2021/11/13 04:54:13;;;;;;;1.23;1.13;;;6.30;99.90;;;;;;5034159;28;20183;-71
2021/11/13 04:56:39;;;;;;;0.80;0.77;;;6.30;99.90;;;;;;5032974;28;20525;-71
2021/11/13 04:59:05;;;;;;;0.70;0.50;;;6.30;99.90;;;;;;5033319;28;20183;-71
2021/11/13 05:01:30;;;;;;;1.67;0.80;;;6.30;99.90;;;;;;5033364;28;20749;-70
2021/11/13 05:03:56;;;;;;;4.63;1.67;;;6.30;99.90;;;;;;5033250;28;20641;-71
2021/11/13 05:06:22;;;;;;;0.87;0.87;;;6.30;99.90;;;;;;5033100;28;20172;-71
2021/11/13 05:08:48;;;;;;;0.97;0.90;;;6.30;99.90;;;;;;5033637;28;20572;-71
2021/11/13 05:11:14;;;;;;;0.83;0.70;;;6.30;99.90;;;;;;5033280;28;20418;-71
2021/11/13 05:13:40;;;;;;;1.60;1.43;;;6.30;99.90;;;;;;5033150;28;20306;-71
2021/11/13 05:16:06;;;;;;;1.20;1.10;;;6.30;99.90;;;;;;5032616;28;20821;-71
2021/11/13 05:18:31;;;;;;;0.87;0.87;;;6.30;99.90;;;;;;5040733;28;20651;-71
2021/11/13 05:20:57;;;;;;;0.60;0.50;;;6.30;99.90;;;;;;5052972;28;20480;-71
2021/11/13 05:23:23;;;;;;;2.53;2.33;;;6.30;99.90;;;;;;5068576;28;20174;-72
2021/11/13 05:25:48;;;;;;;0.80;0.67;;;6.40;99.90;;;;;;5051716;28;20640;-69
2021/11/13 05:28:14;;;;;;;0.70;0.70;;;6.40;99.90;;;;;;5052731;28;20559;-70
2021/11/13 05:30:40;;;;;;;0.70;0.50;;;6.40;99.90;;;;;;5052648;28;20253;-72
2021/11/13 05:33:05;;;;;;;0.83;0.80;;;6.40;99.90;;;;;;5052824;28;20167;-71
2021/11/13 05:35:31;;;;;;;0.70;0.60;;;6.50;99.90;;;;;;5052257;28;20191;-71
2021/11/13 05:37:56;;;;;;;3.13;1.33;;;6.50;99.90;;;;;;5052416;28;20186;-71
2021/11/13 05:40:23;;;;;;;1.07;1.03;;;6.50;99.90;;;;;;5052564;28;20522;-72
2021/11/13 05:42:49;;;;;;;1.30;0.97;;;6.60;99.90;;;;;;5051660;28;20171;-72
2021/11/13 05:45:15;;;;;;;0.70;0.70;;;6.60;99.90;;;;;;5052209;28;20409;-71
2021/11/13 05:47:41;;;;;;;0.80;0.80;;;6.60;99.90;;;;;;5052157;28;20900;-71
2021/11/13 05:50:10;;;;;;;3.43;2.00;;;6.60;99.90;;;;;;5052446;28;20409;-71
2021/11/13 05:52:38;;;;;;;1.53;1.43;;;6.70;99.90;;;;;;5052729;28;20405;-71
2021/11/13 05:55:04;;;;;;;1.33;1.23;;;6.70;99.90;;;;;;5052888;28;21197;-72
2021/11/13 05:57:30;;;;;;;1.23;1.17;;;6.80;99.90;;;;;;5052305;28;20428;-72
2021/11/13 05:59:55;;;;;;;0.60;0.50;;;6.80;99.90;;;;;;5051336;28;20451;-71
2021/11/13 06:02:22;;;;;;;0.60;0.50;;;6.80;99.90;;;;;;5067586;28;20167;-71
2021/11/13 06:04:47;;;;;;;0.83;0.80;;;6.80;99.90;;;;;;5051899;28;20181;-70
2021/11/13 06:07:13;;;;;;;1.40;1.30;;;6.80;99.90;;;;;;5051850;28;20406;-71
2021/11/13 06:09:39;;;;;;;3.27;2.00;;;6.80;99.90;;;;;;5052447;28;20278;-71
2021/11/13 06:12:04;;;;;;;2.53;2.33;;;6.80;99.90;;;;;;5053954;28;20636;-71
2021/11/13 06:14:30;;;;;;;2.30;2.10;;;6.80;99.90;;;;;;5052032;28;20194;-72
2021/11/13 06:16:56;;;;;;;1.67;1.57;;;6.80;99.90;;;;;;5050720;28;20178;-71
2021/11/13 06:19:21;;;;;;;0.60;0.50;;;6.90;99.90;;;;;;5052957;28;20212;-71
2021/11/13 06:21:47;;;;;;;0.70;0.70;;;7.00;99.90;;;;;;5052651;28;20171;-71
2021/11/13 06:24:12;;;;;;;3.47;2.07;;;7.00;99.90;;;;;;5052000;28;20161;-71
2021/11/13 06:26:38;;;;;;;0.70;0.57;;;7.00;99.90;;;;;;5051642;28;20621;-71
2021/11/13 06:29:04;;;;;;;0.60;0.50;;;7.20;99.90;;;;;;5051766;28;20183;-70
2021/11/13 06:31:29;;;;;;;4.07;3.80;;;7.30;99.90;;;;;;5051880;28;20245;-72
2021/11/13 06:33:55;;;;;;;0.87;0.87;;;7.40;99.90;;;;;;5050882;28;20167;-72
2021/11/13 06:36:21;;;;;;;1.10;0.90;;;7.40;99.90;;;;;;5051392;28;20195;-72
2021/11/13 06:38:46;;;;;;;1.20;1.07;;;7.40;99.90;;;;;;5052796;28;20196;-72
2021/11/13 06:41:12;;;;;;;3.07;2.87;;;7.40;99.90;;;;;;5051930;28;20166;-71
2021/11/13 06:43:37;;;;;;;0.70;0.60;;;7.40;99.90;;;;;;5051687;28;20198;-71
2021/11/13 06:46:03;;;;;;;0.70;0.57;;;7.30;99.90;;;;;;5051498;28;20648;-71
2021/11/13 06:48:28;;;;;;;1.73;1.63;;;7.20;99.90;;;;;;5051698;28;20723;-72
2021/11/13 06:50:54;;;;;;;0.70;0.70;;;7.10;99.90;;;;;;5050609;28;20590;-71
2021/11/13 06:53:20;;;;;;;0.90;0.90;;;7.00;99.90;;;;;;5051649;28;20577;-72
2021/11/13 06:55:48;;;;;;;1.10;0.80;;;7.00;99.90;;;;;;5051197;28;20190;-71
2021/11/13 06:58:14;;;;;;;0.83;0.83;;;6.90;99.90;;;;;;5053083;28;20930;-71
2021/11/13 07:00:39;;;;;;;4.20;1.00;;;6.90;99.90;;;;;;5055665;28;20459;-71
2021/11/13 07:03:05;;;;;;;2.40;0.83;;;6.90;99.90;;;;;;5055429;28;20401;-72
2021/11/13 07:05:30;;;;;;;0.90;0.80;;;6.90;99.90;;;;;;5054972;28;20270;-71
2021/11/13 07:07:57;;;;;;;0.73;0.73;;;6.90;99.90;;;;;;5054408;28;20293;-72
2021/11/13 07:10:23;;;;;;;1.90;1.80;;;6.90;99.90;;;;;;5055229;28;20197;-71
2021/11/13 07:12:49;;;;;;;2.30;1.40;;;7.00;99.90;;;;;;5055324;28;20406;-70
2021/11/13 07:15:17;;;;;;;5.93;1.20;;;7.00;99.90;;;;;;5054814;28;20471;-71
2021/11/13 07:17:43;;;;;;;0.80;0.73;;;7.20;99.90;;;;;;5055612;28;20401;-72
2021/11/13 07:20:10;;;;;;;0.60;0.40;;;7.20;99.90;;;;;;5056004;28;20469;-72
2021/11/13 07:22:38;;;;;;;1.30;1.17;;;7.10;99.90;;;;;;5053794;28;20416;-71
2021/11/13 07:25:04;;;;;;;1.37;0.70;;;7.10;99.90;;;;;;5035320;28;20807;-71
2021/11/13 07:27:30;;;;;;;5.43;2.40;;;7.10;99.90;;;;;;5035110;28;20544;-71
2021/11/13 07:30:00;;;;;;;0.80;0.80;;;7.00;99.90;;;;;;5034971;28;20880;-71
2021/11/13 07:32:27;;;;;;;1.27;1.17;;;7.10;99.90;;;;;;5040481;28;20219;-71
2021/11/13 07:34:53;;;;;;;3.60;3.23;;;7.10;99.90;;;;;;5065828;28;20456;-72
2021/11/13 07:37:18;;;;;;;1.03;1.00;;;7.10;99.90;;;;;;5054234;28;20417;-72
2021/11/13 07:39:44;;;;;;;1.63;1.53;;;7.10;99.90;;;;;;5054742;28;20424;-72
2021/11/13 07:42:10;;;;;;;1.90;1.73;;;7.20;99.90;;;;;;5035122;28;20195;-73
2021/11/13 07:44:36;;;;;;;1.63;1.53;;;7.30;99.90;;;;;;5034768;28;20168;-71
2021/11/13 07:47:02;;;;;;;0.63;0.57;;;7.40;99.90;;;;;;5053335;28;20500;-71
2021/11/13 07:49:28;;;;;;;0.60;0.53;;;7.50;99.90;;;;;;5059329;28;20213;-71
2021/11/13 07:51:54;;;;;;;0.60;0.50;;;7.60;99.90;;;;;;5054549;28;20488;-71
2021/11/13 07:54:20;;;;;;;0.60;0.43;;;7.80;99.90;;;;;;5054210;28;20190;-71
2021/11/13 07:56:46;;;;;;;4.10;0.97;;;7.90;99.90;;;;;;5053145;28;20456;-71
2021/11/13 07:59:13;;;;;;;0.70;0.70;;;8.10;99.90;;;;;;5034370;28;20191;-71
2021/11/13 08:01:40;;;;;;;0.60;0.50;;;8.20;99.90;;;;;;5034402;28;20407;-71
2021/11/13 08:04:05;;;;;;;0.70;0.60;;;8.20;99.90;;;;;;5034405;28;20390;-71
2021/11/13 08:06:31;;;;;;;0.60;0.50;;;8.30;99.90;;;;;;5034348;28;20497;-71
2021/11/13 08:08:56;;;;;;;1.07;1.07;;;8.30;99.90;;;;;;5034016;28;20192;-72
2021/11/13 08:11:23;;;;;;;2.13;1.83;;;8.20;99.90;;;;;;5034058;28;20638;-71
2021/11/13 08:13:48;;;;;;;0.60;0.50;;;8.10;99.90;;;;;;5034887;28;20216;-71
2021/11/13 08:16:14;;;;;;;1.53;1.43;;;7.90;99.90;;;;;;5033762;28;20450;-71
2021/11/13 08:18:39;;;;;;;0.87;0.87;;;7.90;99.90;;;;;;5043037;28;20198;-72
2021/11/13 08:21:05;;;;;;;1.47;1.37;;;7.90;99.90;;;;;;5053987;28;20265;-72
2021/11/13 08:23:31;;;;;;;0.67;0.57;;;7.90;99.90;;;;;;5053997;28;20245;-73
2021/11/13 08:25:58;;;;;;;0.73;0.60;;;8.00;99.90;;;;;;5052340;28;20674;-72
2021/11/13 08:28:25;;;;;;;1.63;1.00;;;8.10;99.90;;;;;;5053804;28;20425;-72
2021/11/13 08:30:52;;;;;;;0.70;0.70;;;8.10;99.90;;;;;;5051980;28;20440;-72
2021/11/13 08:33:18;;;;;;;0.70;0.60;;;8.20;99.90;;;;;;5033915;28;20409;-73
2021/11/13 08:35:46;;;;;;;0.60;0.40;;;8.20;99.90;;;;;;5033534;28;20745;-73
2021/11/13 08:38:18;;;;;;;0.60;0.50;;;8.30;99.90;;;;;;5046538;28;20479;-72
2021/11/13 08:40:45;;;;;;;3.03;2.67;;;8.50;99.90;;;;;;5053639;28;20402;-72
2021/11/13 08:43:11;;;;;;;0.60;0.50;;;8.70;99.90;;;;;;5053673;28;20492;-72
2021/11/13 08:45:36;;;;;;;0.70;0.50;;;8.90;99.90;;;;;;5053322;28;20420;-71
2021/11/13 08:48:02;;;;;;;0.60;0.50;;;9.00;99.90;;;;;;5050185;28;20430;-70
2021/11/13 08:50:30;;;;;;;0.70;0.50;;;9.20;99.90;;;;;;5034471;28;20202;-72
2021/11/13 08:52:59;;;;;;;0.70;0.57;;;9.30;99.90;;;;;;5034581;28;20822;-71
2021/11/13 08:55:27;;;;;;;0.60;0.50;;;9.40;99.90;;;;;;5033632;28;20536;-72
2021/11/13 08:57:53;;;;;;;0.60;0.50;;;9.50;99.90;;;;;;5033169;28;20429;-72
2021/11/13 09:00:31;;;;;;;0.70;0.50;;;9.60;99.90;;;;;;5033307;28;20402;-71
2021/11/13 09:03:00;;;;;;;0.70;0.50;;;9.60;99.90;;;;;;5033486;28;20414;-72
2021/11/13 09:05:26;;;;;;;0.70;0.50;;;9.60;99.90;;;;;;5033529;28;20422;-72
2021/11/13 09:07:54;;;;;;;0.70;0.50;;;9.60;99.90;;;;;;5033176;28;20414;-71
2021/11/13 09:10:20;;;;;;;0.67;0.50;;;9.70;99.90;;;;;;5033437;28;21054;-72
2021/11/13 09:12:46;;;;;;;0.70;0.50;;;9.70;99.90;;;;;;5052654;28;20456;-72
2021/11/13 09:15:18;;;;;;;0.70;0.60;;;9.80;99.90;;;;;;5052619;28;20953;-72
2021/11/13 09:17:44;;;;;;;0.70;0.50;;;9.80;99.90;;;;;;5052765;28;20171;-70
2021/11/13 09:20:10;;;;;;;0.70;0.50;;;9.80;99.90;;;;;;5052359;28;20861;-70
2021/11/13 09:22:36;;;;;;;0.70;0.50;;;9.80;99.90;;;;;;5050696;28;20837;-70
2021/11/13 09:25:09;;;;;;;0.70;0.50;;;9.90;99.90;;;;;;5051945;28;20428;-71
2021/11/13 09:27:37;;;;;;;0.80;0.50;;;10.00;99.90;;;;;;5052341;28;20429;-71
2021/11/13 09:30:08;;;;;;;0.70;0.50;;;10.00;99.90;;;;;;5052345;28;20504;-71
2021/11/13 09:32:34;;;;;;;0.70;0.53;;;10.00;99.90;;;;;;5052516;28;20409;-72
2021/11/13 09:35:00;;;;;;;0.70;0.50;;;10.10;99.90;;;;;;5052058;28;20861;-72
2021/11/13 09:37:26;;;;;;;0.70;0.57;;;10.10;99.90;;;;;;5052522;28;20413;-72
2021/11/13 09:39:52;;;;;;;0.70;0.50;;;10.10;99.90;;;;;;5048099;28;20198;-72
2021/11/13 09:42:20;;;;;;;7.10;3.33;;;10.10;99.90;;;;;;5052892;28;20213;-72
2021/11/13 09:44:45;;;;;;;0.87;0.67;;;10.20;99.90;;;;;;5052288;28;20454;-71
2021/11/13 09:47:12;;;;;;;0.70;0.50;;;10.10;99.90;;;;;;5052600;28;20774;-72
2021/11/13 09:49:38;;;;;;;0.70;0.50;;;10.20;99.90;;;;;;5051827;28;20202;-72
2021/11/13 09:52:04;;;;;;;0.70;0.50;;;10.20;99.90;;;;;;5052492;28;20504;-72
2021/11/13 09:54:29;;;;;;;0.70;0.50;;;10.20;99.90;;;;;;5050959;28;20175;-72
2021/11/13 09:56:56;;;;;;;0.70;0.50;;;10.20;99.90;;;;;;5040369;28;20506;-72
2021/11/13 09:59:22;;;;;;;0.70;0.50;;;10.20;99.90;;;;;;5031425;28;20427;-71
2021/11/13 10:01:48;;;;;;;0.70;0.50;;;10.30;99.90;;;;;;5050762;28;20421;-72
2021/11/13 10:04:13;;;;;;;0.70;0.63;;;10.30;99.90;;;;;;5067714;28;20491;-72
2021/11/13 10:06:40;;;;;;;0.70;0.50;;;10.30;99.90;;;;;;5050518;28;20425;-72
2021/11/13 10:09:06;;;;;;;0.70;0.50;;;10.40;99.90;;;;;;5052496;28;20529;-73
2021/11/13 10:11:32;;;;;;;0.70;0.50;;;10.50;99.90;;;;;;5052262;28;20833;-72
2021/11/13 10:13:59;;;;;;;0.70;0.50;;;10.50;99.90;;;;;;5049819;28;20475;-72
2021/11/13 10:16:32;;;;;;;0.70;0.50;;;10.60;99.90;;;;;;5051976;28;20503;-72
2021/11/13 10:19:11;;;;;;;1.57;1.47;;;10.70;99.90;;;;;;5052101;28;20417;-71
2021/11/13 10:21:39;;;;;;;1.37;0.77;;;10.80;99.90;;;;;;5052109;28;20413;-71
2021/11/13 10:24:21;;;;;;;0.80;0.63;;;11.00;99.90;;;;;;5051920;28;20417;-71
2021/11/13 10:26:50;;;;;;;0.80;0.60;;;11.30;99.90;;;;;;5051908;28;20404;-71
2021/11/13 10:29:23;;;;;;;0.70;0.60;;;11.50;99.90;;;;;;5051759;28;20536;-71
2021/11/13 10:31:54;;;;;;;1.03;0.93;;;11.70;99.90;;;;;;5050884;28;20429;-71
2021/11/13 10:34:34;;;;;;;0.80;0.70;;;12.00;99.90;;;;;;5051295;28;20417;-71
2021/11/13 10:37:03;;;;;;;1.00;0.90;;;12.20;99.90;;;;;;5051802;28;20915;-71
2021/11/13 10:39:35;;;;;;;0.70;0.50;;;12.60;99.90;;;;;;5051379;28;20445;-72
2021/11/13 10:42:04;;;;;;;0.70;0.50;;;13.60;99.90;;;;;;5052282;28;20948;-71
2021/11/13 10:44:36;;;;;;;0.70;0.50;;;14.20;99.90;;;;;;5053176;28;20459;-72
2021/11/13 10:47:13;;;;;;;0.70;0.50;;;14.40;99.90;;;;;;5045668;28;20434;-70
2021/11/13 10:49:38;;;;;;;0.80;0.70;;;14.20;99.90;;;;;;5061256;28;20448;-71
2021/11/13 10:52:06;;;;;;;0.70;0.50;;;13.90;99.90;;;;;;5055966;28;20425;-71
2021/11/13 10:54:32;;;;;;;0.70;0.60;;;13.70;99.90;;;;;;5067408;28;20836;-71
2021/11/13 10:57:04;;;;;;;1.07;0.97;;;13.50;99.90;;;;;;5067909;28;20445;-71
2021/11/13 10:59:31;;;;;;;0.70;0.50;;;13.70;99.90;;;;;;5032794;28;20486;-71
2021/11/13 11:01:59;;;;;;;0.70;0.60;;;13.90;99.90;;;;;;5034895;28;20407;-70
2021/11/13 11:04:30;;;;;;;0.80;0.70;;;13.90;99.90;;;;;;5045122;28;20423;-71
2021/11/13 11:07:06;;;;;;;0.70;0.60;;;13.90;99.90;;;;;;5050706;28;20918;-71
2021/11/13 11:09:38;;;;;;;0.70;0.50;;;13.80;99.90;;;;;;5051867;28;20467;-71
2021/11/13 11:12:27;;;;;;;0.80;0.60;;;13.70;99.90;;;;;;5052466;28;20406;-71
2021/11/13 11:14:54;;;;;;;1.23;1.07;;;13.50;99.90;;;;;;5052122;28;20457;-70
2021/11/13 11:17:25;;;;;;;0.80;0.70;;;13.60;99.90;;;;;;5079629;28;20413;-71
2021/11/13 11:19:52;;;;;;;0.90;0.90;;;13.50;99.90;;;;;;5044261;28;20445;-71
2021/11/13 11:22:23;;;;;;;1.03;0.50;;;13.20;99.90;;;;;;5050299;28;20422;-71
2021/11/13 11:24:57;;;;;;;0.70;0.50;;;13.00;99.90;;;;;;5055458;28;20424;-71
2021/11/13 11:27:37;;;;;;;0.70;0.50;;;12.80;99.90;;;;;;5032205;28;20480;-73
2021/11/13 11:30:14;;;;;;;0.90;0.90;;;12.70;99.90;;;;;;5044739;28;20444;-70
2021/11/13 11:32:40;;;;;;;0.70;0.50;;;12.50;99.90;;;;;;5049131;28;20517;-70
2021/11/13 11:35:30;;;;;;;0.90;0.90;;;12.50;99.90;;;;;;5048969;28;21048;-71
2021/11/13 11:38:01;;;;;;;0.70;0.50;;;12.50;99.90;;;;;;5045861;28;20188;-71
2021/11/13 11:40:32;;;;;;;1.50;1.37;;;12.60;99.90;;;;;;5042473;28;20446;-71
2021/11/13 11:42:59;;;;;;;1.07;1.07;;;12.70;99.90;;;;;;5051570;28;20516;-71
2021/11/13 11:45:29;;;;;;;1.23;0.80;;;12.70;99.90;;;;;;5045284;28;20438;-70
2021/11/13 11:47:56;;;;;;;0.70;0.50;;;12.80;99.90;;;;;;5045099;28;20445;-72
2021/11/13 11:50:25;;;;;;;5.80;4.10;;;12.70;99.90;;;;;;5045652;28;20935;-71
2021/11/13 11:52:53;;;;;;;1.00;0.80;;;12.70;99.90;;;;;;5045059;28;20433;-71
2021/11/13 11:55:20;;;;;;;0.70;0.50;;;12.80;99.90;;;;;;5045477;28;20604;-73
2021/11/13 11:57:53;;;;;;;0.70;0.50;;;12.90;99.90;;;;;;5049512;28;20476;-70
2021/11/13 12:00:22;;;;;;;1.27;1.03;;;13.00;99.90;;;;;;5045247;28;20433;-70
2021/11/13 12:02:51;;;;;;;0.80;0.70;;;13.20;99.90;;;;;;5045530;28;20981;-71
2021/11/13 12:05:23;;;;;;;7.40;2.00;;;13.30;99.90;;;;;;5045072;28;20451;-71
2021/11/13 12:07:50;;;;;;;0.90;0.90;;;13.20;99.90;;;;;;5045515;28;21209;-70
2021/11/13 12:10:22;;;;;;;0.77;0.63;;;13.00;99.90;;;;;;5045476;28;20918;-71
2021/11/13 12:13:09;;;;;;;0.70;0.50;;;13.00;99.90;;;;;;5044791;28;20512;-71
2021/11/13 12:15:59;;;;;;;0.70;0.60;;;12.90;99.90;;;;;;5045921;28;20484;-71
2021/11/13 12:18:26;;;;;;;2.80;1.03;;;12.90;99.90;;;;;;5050192;28;20449;-72
2021/11/13 12:20:53;;;;;;;0.70;0.50;;;12.80;99.90;;;;;;5048415;28;20464;-72
2021/11/13 12:23:30;;;;;;;0.70;0.60;;;12.60;99.90;;;;;;5044261;28;20429;-71
2021/11/13 12:26:12;;;;;;;0.97;0.87;;;12.50;99.90;;;;;;5045513;28;20914;-72
2021/11/13 12:28:47;;;;;;;0.70;0.50;;;12.40;99.90;;;;;;5044723;28;21214;-71
2021/11/13 12:31:29;;;;;;;0.70;0.63;;;12.40;99.90;;;;;;5042558;28;20425;-72
2021/11/13 12:34:01;;;;;;;0.70;0.60;;;12.40;99.90;;;;;;5046750;28;20964;-73
2021/11/13 12:36:35;;;;;;;1.57;1.43;;;12.50;99.90;;;;;;5047111;28;20833;-71
2021/11/13 12:39:08;;;;;;;1.27;1.17;;;12.50;99.90;;;;;;5047536;28;20452;-72
2021/11/13 12:41:42;;;;;;;0.70;0.60;;;12.50;99.90;;;;;;5047299;28;22440;-70
2021/11/13 12:44:34;;;;;;;0.87;0.70;;;12.70;99.90;;;;;;5049710;28;20435;-70
2021/11/13 12:47:03;;;;;;;0.80;0.70;;;12.70;99.90;;;;;;5044438;28;20437;-71
2021/11/13 12:49:35;;;;;;;1.30;0.70;;;12.70;99.90;;;;;;5047528;28;20527;-71
2021/11/13 12:52:16;;;;;;;0.70;0.50;;;12.70;99.90;;;;;;5045990;28;21765;-71
2021/11/13 12:54:48;;;;;;;0.70;0.50;;;12.70;99.90;;;;;;5046237;28;20544;-70
2021/11/13 12:57:31;;;;;;;1.50;1.40;;;12.80;99.90;;;;;;5047067;28;20445;-71